createdAt,value
2019-05-05T00:01:02.728Z,96275.25
2019-05-05T00:03:45.372Z,96264.15
2019-05-05T00:06:11.627Z,96262.83
2019-05-05T00:08:37.598Z,96264.23
2019-05-05T00:11:08.382Z,96262.64
2019-05-05T00:13:38.866Z,96267.83
2019-05-05T00:16:15.636Z,96272.73
2019-05-05T00:18:41.582Z,96273.00
2019-05-05T00:21:07.434Z,96270.20
2019-05-05T00:23:34.552Z,96268.59
2019-05-05T00:26:00.520Z,96257.42
2019-05-05T00:28:26.456Z,96261.37
2019-05-05T00:30:52.400Z,96257.75
2019-05-05T00:33:18.346Z,96259.32
2019-05-05T00:35:45.167Z,96255.12
2019-05-05T00:38:11.145Z,96247.77
2019-05-05T00:40:37.098Z,96255.36
2019-05-05T00:43:05.193Z,96258.44
2019-05-05T00:45:31.116Z,96266.72
2019-05-05T00:48:07.983Z,96263.64
2019-05-05T00:50:34.324Z,96262.08
2019-05-05T00:53:00.400Z,96263.66
2019-05-05T00:55:26.414Z,96268.05
2019-05-05T00:57:54.654Z,96271.66
2019-05-05T01:00:39.546Z,96274.96
2019-05-05T01:03:05.705Z,96281.23
2019-05-05T01:05:36.450Z,96279.97
2019-05-05T01:08:05.098Z,96281.05
2019-05-05T01:10:30.770Z,96282.40
2019-05-05T01:12:56.589Z,96286.88
2019-05-05T01:15:22.455Z,96298.60
2019-05-05T01:17:48.402Z,96306.16
2019-05-05T01:20:14.674Z,96313.97
2019-05-05T01:22:40.687Z,96313.47
2019-05-05T01:25:06.819Z,96310.08
2019-05-05T01:27:34.737Z,96321.02
2019-05-05T01:30:00.792Z,96315.31
2019-05-05T01:32:44.930Z,96324.66
2019-05-05T01:35:11.104Z,96326.47
2019-05-05T01:37:41.583Z,96329.09
2019-05-05T01:40:24.732Z,96334.81
2019-05-05T01:42:50.784Z,96340.26
2019-05-05T01:45:16.898Z,96340.27
2019-05-05T01:47:42.837Z,96343.38
2019-05-05T01:50:18.238Z,96353.00
2019-05-05T01:52:38.435Z,96351.17
2019-05-05T01:55:05.312Z,96345.20
2019-05-05T01:57:31.332Z,96352.21
2019-05-05T01:59:57.379Z,96342.08
2019-05-05T02:02:25.131Z,96336.10
2019-05-05T02:04:51.182Z,96339.48
2019-05-05T02:07:17.134Z,96335.58
2019-05-05T02:09:44.857Z,96342.84
2019-05-05T02:12:10.991Z,96352.22
2019-05-05T02:14:36.936Z,96343.36
2019-05-05T02:17:04.912Z,96351.16
2019-05-05T02:19:30.707Z,96353.77
2019-05-05T02:21:56.556Z,96357.93
2019-05-05T02:24:22.391Z,96357.41
2019-05-05T02:26:48.428Z,96349.36
2019-05-05T02:29:32.818Z,96354.03
2019-05-05T02:32:17.033Z,96364.42
2019-05-05T02:34:56.672Z,96368.05
2019-05-05T02:37:25.626Z,96369.62
2019-05-05T02:39:59.003Z,96364.70
2019-05-05T02:42:20.276Z,96370.15
2019-05-05T02:44:46.545Z,96369.89
2019-05-05T02:47:29.908Z,96373.29
2019-05-05T02:49:59.577Z,96379.78
2019-05-05T02:52:25.598Z,96380.83
2019-05-05T02:54:53.641Z,96385.23
2019-05-05T02:57:21.008Z,96389.42
2019-05-05T02:59:49.070Z,96383.95
2019-05-05T03:02:19.787Z,96385.23
2019-05-05T03:04:45.726Z,96380.82
2019-05-05T03:07:13.794Z,96382.12
2019-05-05T03:09:40.707Z,96376.13
2019-05-05T03:12:07.187Z,96381.87
2019-05-05T03:14:34.915Z,96376.39
2019-05-05T03:17:04.227Z,96381.05
2019-05-05T03:19:30.309Z,96385.48
2019-05-05T03:21:56.272Z,96387.29
2019-05-05T03:24:23.604Z,96384.98
2019-05-05T03:26:49.663Z,96376.41
2019-05-05T03:29:17.511Z,96380.31
2019-05-05T03:31:45.798Z,96375.34
2019-05-05T03:34:11.427Z,96373.55
2019-05-05T03:36:37.353Z,96375.63
2019-05-05T03:39:05.311Z,96374.03
2019-05-05T03:41:48.141Z,96373.51
2019-05-05T03:44:19.206Z,96376.63
2019-05-05T03:46:45.239Z,96377.95
2019-05-05T03:49:11.289Z,96374.55
2019-05-05T03:51:37.240Z,96370.91
2019-05-05T03:54:04.316Z,96375.08
2019-05-05T03:56:30.436Z,96374.81
2019-05-05T03:58:58.328Z,96374.58
2019-05-05T04:01:37.246Z,96381.32
2019-05-05T04:04:24.387Z,96384.20
2019-05-05T04:06:54.049Z,96391.48
2019-05-05T04:09:20.657Z,96387.31
2019-05-05T04:11:46.734Z,96395.63
2019-05-05T04:14:14.218Z,96392.25
2019-05-05T04:16:43.568Z,96398.49
2019-05-05T04:19:11.366Z,96403.42
2019-05-05T04:21:37.336Z,96405.78
2019-05-05T04:24:04.038Z,96403.44
2019-05-05T04:26:30.133Z,96402.40
2019-05-05T04:28:56.064Z,96406.03
2019-05-05T04:31:24.049Z,96416.44
2019-05-05T04:33:49.855Z,96418.22
2019-05-05T04:36:15.681Z,96419.56
2019-05-05T04:38:43.743Z,96418.00
2019-05-05T04:41:09.460Z,96422.94
2019-05-05T04:43:35.450Z,96428.42
2019-05-05T04:46:01.293Z,96431.27
2019-05-05T04:48:31.563Z,96428.93
2019-05-05T04:51:02.050Z,96432.83
2019-05-05T04:53:29.901Z,96441.69
2019-05-05T04:55:55.739Z,96453.12
2019-05-05T04:58:21.685Z,96450.02
2019-05-05T05:00:47.623Z,96453.12
2019-05-05T05:03:32.146Z,96454.17
2019-05-05T05:05:59.980Z,96454.66
2019-05-05T05:08:25.827Z,96444.52
2019-05-05T05:10:51.868Z,96450.23
2019-05-05T05:13:17.841Z,96455.66
2019-05-05T05:15:44.602Z,96454.38
2019-05-05T05:18:14.577Z,96452.03
2019-05-05T05:20:40.289Z,96451.51
2019-05-05T05:23:06.124Z,96455.37
2019-05-05T05:25:32.042Z,96454.59
2019-05-05T05:27:57.894Z,96457.13
2019-05-05T05:30:24.313Z,96459.67
2019-05-05T05:32:50.156Z,96465.60
2019-05-05T05:35:16.126Z,96472.27
2019-05-05T05:37:41.958Z,96465.55
2019-05-05T05:40:23.632Z,96473.61
2019-05-05T05:42:49.561Z,96478.89
2019-05-05T05:45:20.067Z,96479.63
2019-05-05T05:48:04.596Z,96489.52
2019-05-05T05:50:33.941Z,96495.63
2019-05-05T05:52:59.886Z,96502.53
2019-05-05T05:55:25.746Z,96502.22
2019-05-05T05:57:51.589Z,96512.47
2019-05-05T06:00:17.446Z,96514.77
2019-05-05T06:02:43.994Z,96520.84
2019-05-05T06:05:10.035Z,96526.50
2019-05-05T06:07:35.990Z,96528.80
2019-05-05T06:10:03.733Z,96538.12
2019-05-05T06:12:29.827Z,96539.84
2019-05-05T06:14:55.684Z,96547.44
2019-05-05T06:17:23.666Z,96540.64
2019-05-05T06:19:49.694Z,96555.73
2019-05-05T06:22:28.105Z,96559.03
2019-05-05T06:24:44.049Z,96562.81
2019-05-05T06:27:10.046Z,96552.27
2019-05-05T06:29:35.967Z,96555.03
2019-05-05T06:32:03.883Z,96553.77
2019-05-05T06:34:29.584Z,96553.95
2019-05-05T06:36:55.538Z,96563.67
2019-05-05T06:39:21.422Z,96561.47
2019-05-05T06:41:53.798Z,96568.90
2019-05-05T06:44:21.703Z,96565.53
2019-05-05T06:46:53.729Z,96576.72
2019-05-05T06:49:19.750Z,96569.13
2019-05-05T06:51:45.682Z,96564.92
2019-05-05T06:54:13.612Z,96575.66
2019-05-05T06:56:39.469Z,96571.02
2019-05-05T06:59:06.134Z,96584.16
2019-05-05T07:01:33.786Z,96591.35
2019-05-05T07:03:59.830Z,96597.14
2019-05-05T07:06:25.782Z,96590.76
2019-05-05T07:08:51.724Z,96593.97
2019-05-05T07:11:17.716Z,96598.23
2019-05-05T07:13:44.310Z,96598.82
2019-05-05T07:16:12.229Z,96602.25
2019-05-05T07:18:38.235Z,96607.81
2019-05-05T07:21:04.081Z,96612.66
2019-05-05T07:23:30.026Z,96611.70
2019-05-05T07:25:55.885Z,96611.07
2019-05-05T07:28:23.503Z,96617.89
2019-05-05T07:30:49.513Z,96617.89
2019-05-05T07:33:15.455Z,96615.98
2019-05-05T07:35:58.790Z,96616.82
2019-05-05T07:38:20.017Z,96623.90
2019-05-05T07:40:45.877Z,96624.58
2019-05-05T07:43:11.915Z,96630.20
2019-05-05T07:45:37.767Z,96640.85
2019-05-05T07:48:04.863Z,96650.47
2019-05-05T07:50:32.615Z,96642.33
2019-05-05T07:53:11.437Z,96647.08
2019-05-05T07:55:26.630Z,96647.94
2019-05-05T07:57:53.775Z,96646.69
2019-05-05T08:00:19.733Z,96651.45
2019-05-05T08:02:45.554Z,96657.44
2019-05-05T08:05:11.515Z,96652.64
2019-05-05T08:07:37.330Z,96657.23
2019-05-05T08:10:04.662Z,96661.16
2019-05-05T08:12:30.634Z,96667.10
2019-05-05T08:14:56.626Z,96669.48
2019-05-05T08:17:30.364Z,96669.27
2019-05-05T08:19:58.236Z,96669.27
2019-05-05T08:22:24.181Z,96681.68
2019-05-05T08:25:09.840Z,96681.31
2019-05-05T08:27:40.477Z,96680.78
2019-05-05T08:30:24.774Z,96677.52
2019-05-05T08:32:53.914Z,96680.98
2019-05-05T08:35:19.687Z,96685.67
2019-05-05T08:37:45.725Z,96684.80
2019-05-05T08:40:11.890Z,96682.44
2019-05-05T08:42:37.837Z,96685.63
2019-05-05T08:45:04.696Z,96689.88
2019-05-05T08:47:30.587Z,96686.02
2019-05-05T08:49:56.543Z,96691.31
2019-05-05T08:52:23.834Z,96692.25
2019-05-05T08:54:49.892Z,96693.50
2019-05-05T08:57:15.873Z,96694.77
2019-05-05T08:59:43.815Z,96689.34
2019-05-05T09:02:09.622Z,96694.78
2019-05-05T09:04:35.586Z,96692.13
2019-05-05T09:07:01.669Z,96695.53
2019-05-05T09:09:27.570Z,96693.36
2019-05-05T09:11:54.208Z,96696.39
2019-05-05T09:14:20.353Z,96703.52
2019-05-05T09:16:46.322Z,96704.83
2019-05-05T09:19:16.631Z,96707.21
2019-05-05T09:21:44.625Z,96702.09
2019-05-05T09:24:28.855Z,96698.98
2019-05-05T09:27:05.496Z,96702.27
2019-05-05T09:29:43.969Z,96703.34
2019-05-05T09:32:10.064Z,96702.34
2019-05-05T09:34:35.924Z,96706.05
2019-05-05T09:37:03.693Z,96705.23
2019-05-05T09:39:29.649Z,96702.03
2019-05-05T09:41:55.803Z,96702.99
2019-05-05T09:44:24.024Z,96701.77
2019-05-05T09:46:49.516Z,96702.43
2019-05-05T09:49:15.468Z,96705.65
2019-05-05T09:51:41.413Z,96710.75
2019-05-05T09:54:14.166Z,96703.75
2019-05-05T09:56:35.025Z,96705.55
2019-05-05T09:59:00.963Z,96701.94
2019-05-05T10:01:27.007Z,96713.43
2019-05-05T10:03:54.849Z,96714.03
2019-05-05T10:06:20.879Z,96707.62
2019-05-05T10:08:46.980Z,96712.22
2019-05-05T10:11:16.255Z,96709.00
2019-05-05T10:13:40.812Z,96708.88
2019-05-05T10:16:06.676Z,96708.72
2019-05-05T10:18:35.492Z,96704.91
2019-05-05T10:21:00.350Z,96704.00
2019-05-05T10:23:28.131Z,96706.05
2019-05-05T10:25:55.025Z,96703.53
2019-05-05T10:28:20.864Z,96709.34
2019-05-05T10:30:47.020Z,96700.85
2019-05-05T10:33:14.286Z,96711.53
2019-05-05T10:35:40.312Z,96706.92
2019-05-05T10:38:06.414Z,96708.45
2019-05-05T10:40:34.058Z,96714.80
2019-05-05T10:43:00.117Z,96712.91
2019-05-05T10:45:25.967Z,96707.55
2019-05-05T10:47:51.914Z,96706.67
2019-05-05T10:50:17.984Z,96708.84
2019-05-05T10:52:44.353Z,96679.14
2019-05-05T10:55:10.873Z,96679.14
2019-05-05T10:57:36.721Z,96685.84
2019-05-05T11:00:12.403Z,96685.84
2019-05-05T11:02:32.073Z,96683.80
2019-05-05T11:04:58.042Z,96677.23
2019-05-05T11:07:24.003Z,96681.45
2019-05-05T11:09:50.055Z,96689.09
2019-05-05T11:12:16.024Z,96683.50
2019-05-05T11:14:43.660Z,96686.13
2019-05-05T11:17:09.802Z,96678.14
2019-05-05T11:19:35.747Z,96678.14
2019-05-05T11:22:01.598Z,96678.77
2019-05-05T11:24:27.555Z,96672.98
2019-05-05T11:26:53.963Z,96685.83
2019-05-05T11:29:19.940Z,96685.36
2019-05-05T11:31:46.024Z,96685.20
2019-05-05T11:34:19.756Z,96684.91
2019-05-05T11:36:47.612Z,96684.91
2019-05-05T11:39:14.768Z,96689.00
2019-05-05T11:41:40.797Z,96687.44
2019-05-05T11:44:06.689Z,96686.69
2019-05-05T11:46:33.927Z,96686.17
2019-05-05T11:49:00.023Z,96681.92
2019-05-05T11:51:25.996Z,96681.92
2019-05-05T11:53:53.850Z,96689.99
2019-05-05T11:56:19.613Z,96683.88
2019-05-05T11:58:45.702Z,96688.38
2019-05-05T12:01:13.708Z,96686.95
2019-05-05T12:03:39.530Z,96690.95
2019-05-05T12:06:05.399Z,96683.69
2019-05-05T12:08:31.355Z,96689.66
2019-05-05T12:10:58.625Z,96688.65
2019-05-05T12:13:24.598Z,96685.66
2019-05-05T12:15:53.795Z,96687.72
2019-05-05T12:18:19.732Z,96688.84
2019-05-05T12:20:45.581Z,96690.05
2019-05-05T12:23:11.640Z,96689.39
2019-05-05T12:25:48.257Z,96689.37
2019-05-05T12:28:24.946Z,96685.99
2019-05-05T12:30:56.335Z,96685.99
2019-05-05T12:33:24.222Z,96682.00
2019-05-05T12:35:50.051Z,96686.50
2019-05-05T12:38:16.094Z,96685.03
2019-05-05T12:40:44.160Z,96689.73
2019-05-05T12:43:09.853Z,96689.73
2019-05-05T12:45:37.615Z,96687.35
2019-05-05T12:48:20.255Z,96693.14
2019-05-05T12:50:46.207Z,96696.20
2019-05-05T12:53:12.043Z,96695.42
2019-05-05T12:55:41.385Z,96695.96
2019-05-05T12:58:05.766Z,96698.99
2019-05-05T13:00:32.806Z,96698.99
2019-05-05T13:02:58.669Z,96699.52
2019-05-05T13:05:24.618Z,96695.02
2019-05-05T13:07:50.694Z,96693.59
2019-05-05T13:10:18.306Z,96694.09
2019-05-05T13:12:44.132Z,96694.09
2019-05-05T13:15:10.096Z,96693.95
2019-05-05T13:17:36.030Z,96689.42
2019-05-05T13:20:05.099Z,96695.37
2019-05-05T13:22:41.612Z,96692.48
2019-05-05T13:25:09.583Z,96692.48
2019-05-05T13:27:37.436Z,96688.30
2019-05-05T13:30:05.899Z,96693.80
2019-05-05T13:32:33.577Z,96694.70
2019-05-05T13:34:59.507Z,96686.45
2019-05-05T13:37:25.565Z,96693.23
2019-05-05T13:39:53.747Z,96691.67
2019-05-05T13:42:19.513Z,96686.75
2019-05-05T13:45:03.939Z,96695.19
2019-05-05T13:47:29.961Z,96701.70
2019-05-05T13:49:57.816Z,96703.27
2019-05-05T13:52:24.393Z,96706.48
2019-05-05T13:54:50.364Z,96706.48
2019-05-05T13:57:16.321Z,96703.33
2019-05-05T13:59:44.327Z,96711.29
2019-05-05T14:02:10.007Z,96700.42
2019-05-05T14:04:35.859Z,96705.52
2019-05-05T14:07:03.995Z,96701.84
2019-05-05T14:09:29.800Z,96710.50
2019-05-05T14:11:55.744Z,96690.05
2019-05-05T14:14:23.687Z,96700.91
2019-05-05T14:16:49.764Z,96693.78
2019-05-05T14:19:15.724Z,96695.02
2019-05-05T14:21:41.686Z,96699.50
2019-05-05T14:24:09.523Z,96697.10
2019-05-05T14:26:35.500Z,96694.07
2019-05-05T14:29:01.462Z,96694.22
2019-05-05T14:31:29.239Z,96695.11
2019-05-05T14:33:56.993Z,96698.93
2019-05-05T14:36:27.645Z,96706.03
2019-05-05T14:38:55.103Z,96703.66
2019-05-05T14:41:20.980Z,96705.58
2019-05-05T14:43:46.860Z,96705.58
2019-05-05T14:46:14.534Z,96706.73
2019-05-05T14:48:40.581Z,96703.85
2019-05-05T14:51:06.416Z,96691.30
2019-05-05T14:53:34.684Z,96704.00
2019-05-05T14:56:00.048Z,96699.78
2019-05-05T14:58:25.925Z,96692.55
2019-05-05T15:00:51.785Z,96706.67
2019-05-05T15:03:17.635Z,96705.77
2019-05-05T15:05:51.439Z,96715.12
2019-05-05T15:08:24.051Z,96710.02
2019-05-05T15:11:00.714Z,96710.02
2019-05-05T15:13:26.729Z,96712.80
2019-05-05T15:15:53.958Z,96711.29
2019-05-05T15:18:20.057Z,96706.56
2019-05-05T15:20:46.838Z,96705.19
2019-05-05T15:23:13.455Z,96703.94
2019-05-05T15:25:39.350Z,96709.23
2019-05-05T15:28:05.433Z,96709.23
2019-05-05T15:30:33.368Z,96712.98
2019-05-05T15:32:59.164Z,96708.11
2019-05-05T15:35:25.114Z,96709.07
2019-05-05T15:37:51.099Z,96708.73
2019-05-05T15:40:17.102Z,96717.51
2019-05-05T15:42:43.983Z,96710.17
2019-05-05T15:45:10.147Z,96705.89
2019-05-05T15:47:36.144Z,96705.89
2019-05-05T15:50:05.296Z,96706.28
2019-05-05T15:52:31.151Z,96713.12
2019-05-05T15:54:57.033Z,96713.12
2019-05-05T15:57:24.151Z,96716.48
2019-05-05T15:59:50.196Z,96715.54
2019-05-05T16:02:16.041Z,96715.54
2019-05-05T16:04:41.912Z,96715.37
2019-05-05T16:07:07.868Z,96715.84
2019-05-05T16:09:34.066Z,96712.84
2019-05-05T16:12:00.039Z,96715.78
2019-05-05T16:14:25.983Z,96716.55
2019-05-05T16:16:55.886Z,96711.93
2019-05-05T16:19:24.746Z,96713.98
2019-05-05T16:21:54.386Z,96710.13
2019-05-05T16:24:22.214Z,96710.13
2019-05-05T16:26:48.283Z,96719.66
2019-05-05T16:29:14.852Z,96719.27
2019-05-05T16:31:40.805Z,96722.53
2019-05-05T16:34:06.839Z,96722.53
2019-05-05T16:36:33.553Z,96727.45
2019-05-05T16:38:59.554Z,96727.03
2019-05-05T16:41:25.490Z,96725.13
2019-05-05T16:43:53.335Z,96729.53
2019-05-05T16:46:19.327Z,96734.27
2019-05-05T16:48:45.206Z,96736.40
2019-05-05T16:51:13.823Z,96733.41
2019-05-05T16:53:39.716Z,96730.94
2019-05-05T16:56:09.659Z,96738.50
2019-05-05T16:58:35.892Z,96733.77
2019-05-05T17:01:03.806Z,96734.88
2019-05-05T17:03:29.833Z,96735.66
2019-05-05T17:05:58.165Z,96719.24
2019-05-05T17:08:24.467Z,96734.19
2019-05-05T17:10:50.549Z,96736.86
2019-05-05T17:13:18.322Z,96736.86
2019-05-05T17:16:04.060Z,96723.28
2019-05-05T17:18:35.805Z,96731.91
2019-05-05T17:21:13.681Z,96728.76
2019-05-05T17:23:39.588Z,96733.84
2019-05-05T17:26:05.429Z,96733.84
2019-05-05T17:28:33.381Z,96731.34
2019-05-05T17:30:59.156Z,96739.62
2019-05-05T17:33:24.994Z,96732.31
2019-05-05T17:35:50.961Z,96745.34
2019-05-05T17:38:16.787Z,96732.31
2019-05-05T17:40:44.676Z,96734.27
2019-05-05T17:43:29.161Z,96744.70
2019-05-05T17:45:56.930Z,96742.56
2019-05-05T17:48:27.197Z,96741.52
2019-05-05T17:51:04.523Z,96747.73
2019-05-05T17:53:35.198Z,96742.98
2019-05-05T17:56:03.966Z,96749.25
2019-05-05T17:58:29.823Z,96752.38
2019-05-05T18:00:57.568Z,96752.38
2019-05-05T18:03:23.559Z,96750.61
2019-05-05T18:05:57.100Z,96750.43
2019-05-05T18:08:39.758Z,96754.08
2019-05-05T18:11:22.386Z,96757.43
2019-05-05T18:13:50.148Z,96757.67
2019-05-05T18:16:17.817Z,96757.67
2019-05-05T18:18:44.456Z,96756.16
2019-05-05T18:21:10.451Z,96753.77
2019-05-05T18:23:36.305Z,96753.77
2019-05-05T18:26:04.064Z,96752.70
2019-05-05T18:28:30.070Z,96756.58
2019-05-05T18:30:55.995Z,96754.79
2019-05-05T18:33:21.835Z,96757.94
2019-05-05T18:35:47.804Z,96761.54
2019-05-05T18:38:13.831Z,96763.45
2019-05-05T18:40:39.705Z,96766.21
2019-05-05T18:43:07.557Z,96758.17
2019-05-05T18:45:35.448Z,96773.05
2019-05-05T18:48:01.245Z,96769.24
2019-05-05T18:50:27.187Z,96739.02
2019-05-05T18:52:53.818Z,96782.67
2019-05-05T18:55:19.891Z,96780.78
2019-05-05T18:57:45.738Z,96780.78
2019-05-05T19:00:13.949Z,96784.97
2019-05-05T19:02:59.602Z,96786.02
2019-05-05T19:05:27.469Z,96778.77
2019-05-05T19:07:56.091Z,96788.80
2019-05-05T19:10:24.122Z,96789.84
2019-05-05T19:12:50.977Z,96789.84
2019-05-05T19:15:17.008Z,96789.80
2019-05-05T19:17:42.993Z,96791.19
2019-05-05T19:20:10.938Z,96797.46
2019-05-05T19:22:36.988Z,96794.31
2019-05-05T19:25:16.256Z,96797.79
2019-05-05T19:27:45.221Z,96803.42
2019-05-05T19:30:13.746Z,96802.36
2019-05-05T19:32:39.650Z,96805.01
2019-05-05T19:35:05.788Z,96805.01
2019-05-05T19:37:33.545Z,96802.95
2019-05-05T19:39:59.438Z,96806.86
2019-05-05T19:42:25.294Z,96806.86
2019-05-05T19:44:51.262Z,96811.16
2019-05-05T19:47:19.140Z,96811.22
2019-05-05T19:49:47.011Z,96815.98
2019-05-05T19:52:13.565Z,96815.98
2019-05-05T19:54:39.727Z,96812.31
2019-05-05T19:57:05.581Z,96810.90
2019-05-05T19:59:35.411Z,96800.95
2019-05-05T20:01:59.326Z,96807.30
2019-05-05T20:04:25.293Z,96813.78
2019-05-05T20:06:51.249Z,96812.00
2019-05-05T20:09:17.222Z,96813.92
2019-05-05T20:11:43.757Z,96812.88
2019-05-05T20:14:10.379Z,96808.19
2019-05-05T20:16:54.771Z,96813.25
2019-05-05T20:19:20.922Z,96813.25
2019-05-05T20:21:47.088Z,96812.89
2019-05-05T20:24:14.536Z,96821.38
2019-05-05T20:26:40.429Z,96815.87
2019-05-05T20:29:14.027Z,96810.86
2019-05-05T20:31:34.625Z,96816.81
2019-05-05T20:34:03.944Z,96816.02
2019-05-05T20:36:34.879Z,96816.02
2019-05-05T20:39:00.829Z,96816.09
2019-05-05T20:41:26.689Z,96816.09
2019-05-05T20:43:54.231Z,96822.69
2019-05-05T20:46:20.277Z,96819.96
2019-05-05T20:48:46.193Z,96812.39
2019-05-05T20:51:13.766Z,96818.88
2019-05-05T20:53:39.983Z,96819.61
2019-05-05T20:56:05.934Z,96824.02
2019-05-05T20:58:33.652Z,96821.85
2019-05-05T21:00:59.731Z,96818.98
2019-05-05T21:03:25.674Z,96813.48
2019-05-05T21:05:53.744Z,96813.23
2019-05-05T21:08:19.445Z,96812.42
2019-05-05T21:10:45.276Z,96807.48
2019-05-05T21:13:11.236Z,96814.26
2019-05-05T21:15:37.120Z,96808.26
2019-05-05T21:18:05.001Z,96806.16
2019-05-05T21:20:30.812Z,96803.54
2019-05-05T21:22:58.895Z,96814.79
2019-05-05T21:25:29.389Z,96813.77
2019-05-05T21:27:55.355Z,96808.29
2019-05-05T21:30:21.182Z,96809.07
2019-05-05T21:32:47.183Z,96805.69
2019-05-05T21:35:14.234Z,96805.92
2019-05-05T21:37:40.171Z,96808.03
2019-05-05T21:40:06.463Z,96814.28
2019-05-05T21:42:32.311Z,96806.72
2019-05-05T21:44:58.214Z,96806.95
2019-05-05T21:47:24.173Z,96813.16
2019-05-05T21:49:50.090Z,96813.12
2019-05-05T21:52:17.853Z,96806.89
2019-05-05T21:54:45.678Z,96805.37
2019-05-05T21:57:30.107Z,96802.78
2019-05-05T21:59:58.751Z,96800.69
2019-05-05T22:02:24.060Z,96800.95
2019-05-05T22:04:50.096Z,96795.23
2019-05-05T22:07:15.957Z,96792.71
2019-05-05T22:09:42.627Z,96791.91
2019-05-05T22:12:08.687Z,96789.05
2019-05-05T22:14:34.628Z,96790.44
2019-05-05T22:17:00.559Z,96787.36
2019-05-05T22:19:31.320Z,96789.67
2019-05-05T22:22:03.781Z,96787.23
2019-05-05T22:24:29.616Z,96783.78
2019-05-05T22:26:55.550Z,96779.63
2019-05-05T22:29:21.491Z,96779.94
2019-05-05T22:31:47.675Z,96779.46
2019-05-05T22:34:14.552Z,96777.69
2019-05-05T22:36:40.524Z,96773.17
2019-05-05T22:39:09.957Z,96783.59
2019-05-05T22:41:36.015Z,96774.31
2019-05-05T22:44:04.360Z,96773.91
2019-05-05T22:46:29.994Z,96773.78
2019-05-05T22:48:55.949Z,96780.38
2019-05-05T22:51:21.767Z,96774.95
2019-05-05T22:53:47.740Z,96771.30
2019-05-05T22:56:14.803Z,96768.44
2019-05-05T22:58:40.789Z,96774.33
2019-05-05T23:01:06.737Z,96776.10
2019-05-05T23:03:40.476Z,96779.00
2019-05-05T23:06:08.326Z,96777.23
2019-05-05T23:08:35.057Z,96774.63
2019-05-05T23:11:01.238Z,96781.92
2019-05-05T23:13:27.071Z,96777.19
2019-05-05T23:15:54.926Z,96777.36
2019-05-05T23:18:25.773Z,96771.69
2019-05-05T23:21:02.625Z,96778.78
2019-05-05T23:23:39.133Z,96778.52
2019-05-05T23:26:06.977Z,96772.27
2019-05-05T23:28:33.888Z,96778.28
2019-05-05T23:30:59.942Z,96783.74
2019-05-05T23:33:25.789Z,96775.59
2019-05-05T23:35:51.632Z,96776.95
2019-05-05T23:38:17.668Z,96771.27
2019-05-05T23:40:43.640Z,96776.56
2019-05-05T23:43:09.668Z,96774.42
2019-05-05T23:45:35.688Z,96773.38
2019-05-05T23:48:03.572Z,96772.14
2019-05-05T23:50:29.571Z,96768.56
2019-05-05T23:52:55.521Z,96771.64
2019-05-05T23:55:23.660Z,96774.80
2019-05-05T23:57:49.235Z,96765.88
